Time;durP1;ratioP1;P1;durP2;ratioP2;P2;SDS_P1;SDS_P2;PMS_P1;PMS_P2;Temp;Humidity;BMP_temperature;BMP_pressure;BME280_temperature;BME280_humidity;BME280_pressure;Samples;Min_cycle;Max_cycle;Signal;HPM_P1;HPM_P2
2022/04/05 00:01:29;;;;;;;20.42;17.85;;;4.30;78.20;;;;;;6040132;23;20383;-80
2022/04/05 00:03:56;;;;;;;19.47;17.03;;;4.30;78.60;;;;;;6063131;23;20883;-79
2022/04/05 00:06:23;;;;;;;17.83;15.93;;;4.30;77.80;;;;;;6039454;23;20387;-77
2022/04/05 00:08:49;;;;;;;22.50;19.40;;;4.30;78.30;;;;;;6065582;23;20407;-78
2022/04/05 00:11:16;;;;;;;23.15;19.90;;;4.20;80.50;;;;;;6062698;23;20383;-79
2022/04/05 00:13:43;;;;;;;21.30;19.00;;;4.10;82.20;;;;;;6063998;23;20406;-79
2022/04/05 00:16:10;;;;;;;19.45;17.33;;;4.00;81.40;;;;;;6039950;23;20872;-77
2022/04/05 00:18:38;;;;;;;21.45;19.00;;;4.10;80.50;;;;;;6063183;23;20444;-81
2022/04/05 00:21:06;;;;;;;21.58;18.67;;;4.10;80.80;;;;;;6039238;23;20391;-77
2022/04/05 00:23:33;;;;;;;21.77;18.00;;;4.10;80.70;;;;;;6065428;23;20876;-78
2022/04/05 00:26:00;;;;;;;21.75;19.40;;;4.00;80.90;;;;;;6039298;23;20387;-81
2022/04/05 00:28:27;;;;;;;23.23;19.10;;;3.90;81.00;;;;;;6064839;23;20379;-80
2022/04/05 00:30:54;;;;;;;20.33;17.80;;;3.80;81.50;;;;;;6039117;23;20386;-78
2022/04/05 00:33:21;;;;;;;20.05;17.77;;;3.70;81.50;;;;;;6040514;23;20379;-81
2022/04/05 00:35:51;;;;;;;19.25;17.25;;;3.70;81.70;;;;;;6040402;23;20676;-81
2022/04/05 00:38:18;;;;;;;20.73;18.48;;;3.70;81.20;;;;;;6039789;23;20681;-80
2022/04/05 00:40:46;;;;;;;21.20;18.23;;;3.60;81.00;;;;;;6039168;23;20923;-80
2022/04/05 00:43:12;;;;;;;20.48;18.20;;;3.60;81.00;;;;;;6039368;23;20435;-81
2022/04/05 00:45:39;;;;;;;22.03;19.20;;;3.50;82.20;;;;;;6039682;23;20718;-80
2022/04/05 00:48:07;;;;;;;21.10;18.45;;;3.30;83.30;;;;;;6063223;23;20388;-81
2022/04/05 00:50:37;;;;;;;21.33;19.02;;;3.30;82.80;;;;;;6039697;23;20397;-80
2022/04/05 00:53:08;;;;;;;20.53;18.43;;;3.30;82.70;;;;;;6038923;23;20383;-80
2022/04/05 00:55:36;;;;;;;18.73;16.60;;;3.20;82.90;;;;;;6065865;23;20394;-81
2022/04/05 00:58:03;;;;;;;20.88;18.55;;;3.30;82.50;;;;;;6039779;23;20391;-81
2022/04/05 01:00:32;;;;;;;20.45;18.30;;;3.30;82.20;;;;;;6064579;23;20383;-79
2022/04/05 01:03:00;;;;;;;23.17;20.23;;;3.30;82.30;;;;;;6038422;23;20920;-80
2022/04/05 01:05:28;;;;;;;22.70;19.63;;;3.20;84.40;;;;;;6040589;23;20458;-81
2022/04/05 01:07:59;;;;;;;21.70;19.42;;;3.20;84.50;;;;;;6040525;23;20739;-80
2022/04/05 01:10:31;;;;;;;21.25;18.95;;;3.10;84.60;;;;;;6039932;23;20398;-80
2022/04/05 01:12:58;;;;;;;21.70;18.85;;;3.10;83.90;;;;;;6038989;23;20387;-80
2022/04/05 01:15:26;;;;;;;23.90;19.38;;;3.10;84.20;;;;;;6064631;23;20379;-78
2022/04/05 01:17:55;;;;;;;19.88;17.60;;;3.10;85.30;;;;;;6038536;23;20391;-80
2022/04/05 01:20:23;;;;;;;22.40;18.88;;;3.10;84.60;;;;;;6062843;23;20379;-78
2022/04/05 01:22:53;;;;;;;22.30;19.30;;;3.10;83.60;;;;;;6063544;23;20383;-81
2022/04/05 01:25:21;;;;;;;23.27;19.52;;;3.10;83.60;;;;;;6038931;23;20379;-81
2022/04/05 01:27:48;;;;;;;21.80;19.50;;;3.10;84.70;;;;;;6040709;23;20902;-78
2022/04/05 01:30:15;;;;;;;22.67;19.13;;;3.10;84.30;;;;;;6038939;23;20387;-80
2022/04/05 01:32:43;;;;;;;21.20;18.55;;;3.10;84.80;;;;;;6040392;23;20720;-80
2022/04/05 01:35:10;;;;;;;21.23;18.75;;;3.10;83.90;;;;;;6040699;23;20860;-78
2022/04/05 01:37:37;;;;;;;22.48;19.42;;;2.90;84.50;;;;;;6067601;23;20450;-81
2022/04/05 01:40:06;;;;;;;23.27;20.38;;;2.90;84.90;;;;;;6043069;23;20390;-80
2022/04/05 01:42:37;;;;;;;22.35;19.67;;;2.70;85.80;;;;;;6041109;23;20394;-81
2022/04/05 01:45:05;;;;;;;21.00;18.10;;;2.60;85.80;;;;;;6041436;23;20882;-79
2022/04/05 01:47:32;;;;;;;20.00;17.63;;;2.70;85.40;;;;;;6041323;23;20863;-80
2022/04/05 01:49:59;;;;;;;21.45;17.17;;;2.80;84.80;;;;;;6043156;23;20391;-80
2022/04/05 01:52:26;;;;;;;21.83;18.35;;;2.80;84.30;;;;;;6040255;23;20367;-80
2022/04/05 01:54:53;;;;;;;20.92;18.63;;;2.80;83.70;;;;;;6066586;23;20379;-80
2022/04/05 01:57:20;;;;;;;21.37;18.83;;;2.60;84.80;;;;;;6040351;23;20860;-80
2022/04/05 01:59:47;;;;;;;24.70;20.90;;;2.60;83.70;;;;;;6066900;23;20748;-81
2022/04/05 02:02:14;;;;;;;22.77;19.20;;;2.70;85.80;;;;;;6040408;23;20442;-78
2022/04/05 02:04:41;;;;;;;23.77;20.38;;;2.70;84.40;;;;;;6067008;23;20916;-79
2022/04/05 02:07:14;;;;;;;26.83;22.00;;;2.70;85.20;;;;;;6042089;23;20382;-81
2022/04/05 02:09:42;;;;;;;26.88;22.02;;;2.70;86.00;;;;;;6041708;23;20453;-81
2022/04/05 02:12:12;;;;;;;24.20;20.97;;;2.60;86.90;;;;;;6041359;23;20422;-80
2022/04/05 02:14:39;;;;;;;22.70;19.65;;;2.60;86.50;;;;;;6041611;23;20391;-79
2022/04/05 02:17:07;;;;;;;22.60;19.77;;;2.60;86.60;;;;;;6042200;23;20383;-79
2022/04/05 02:19:36;;;;;;;23.20;19.25;;;2.60;85.80;;;;;;6041617;23;20395;-79
2022/04/05 02:22:03;;;;;;;23.42;20.00;;;2.60;85.50;;;;;;6042113;23;20395;-81
2022/04/05 02:24:31;;;;;;;21.25;18.50;;;2.60;85.00;;;;;;6041104;23;20371;-80
2022/04/05 02:26:58;;;;;;;22.17;19.02;;;2.60;84.90;;;;;;6038201;23;20379;-78
2022/04/05 02:29:24;;;;;;;21.60;18.75;;;2.60;84.60;;;;;;6039872;23;20395;-81
2022/04/05 02:31:51;;;;;;;21.15;18.70;;;2.70;83.90;;;;;;6042150;23;20415;-79
2022/04/05 02:34:18;;;;;;;24.15;19.90;;;2.70;83.40;;;;;;6040475;23;20387;-81
2022/04/05 02:36:45;;;;;;;21.45;18.13;;;2.70;83.70;;;;;;6065548;23;20442;-80
2022/04/05 02:39:13;;;;;;;21.30;18.20;;;2.70;82.80;;;;;;6039831;23;20391;-79
2022/04/05 02:41:40;;;;;;;23.35;19.20;;;2.70;82.40;;;;;;6041062;23;20848;-79
2022/04/05 02:44:07;;;;;;;21.05;18.75;;;2.60;84.70;;;;;;6066739;23;20764;-81
2022/04/05 02:46:34;;;;;;;19.88;17.42;;;2.60;84.30;;;;;;6063764;23;21296;-80
2022/04/05 02:49:01;;;;;;;20.73;18.52;;;2.60;83.50;;;;;;6040939;23;20489;-81
2022/04/05 02:51:28;;;;;;;20.08;17.77;;;2.50;85.60;;;;;;6040267;23;20506;-80
2022/04/05 02:53:55;;;;;;;19.52;17.42;;;2.40;83.80;;;;;;6065293;23;20383;-80
2022/04/05 02:56:22;;;;;;;20.88;18.08;;;2.40;83.40;;;;;;6016048;23;20387;-80
2022/04/05 02:58:49;;;;;;;19.90;17.50;;;2.30;83.90;;;;;;6040322;23;20451;-80
2022/04/05 03:01:16;;;;;;;21.05;18.73;;;2.30;82.70;;;;;;6041072;23;20443;-80
2022/04/05 03:03:44;;;;;;;23.70;18.85;;;2.30;81.90;;;;;;6065531;23;20383;-81
2022/04/05 03:06:11;;;;;;;20.60;18.40;;;2.30;83.40;;;;;;6066354;23;20387;-80
2022/04/05 03:08:38;;;;;;;22.67;19.77;;;2.20;81.60;;;;;;6039567;23;20371;-80
2022/04/05 03:11:05;;;;;;;22.30;19.90;;;2.20;82.90;;;;;;6066048;23;20689;-78
2022/04/05 03:13:33;;;;;;;24.33;20.75;;;2.20;82.60;;;;;;6026602;23;20879;-78
2022/04/05 03:16:00;;;;;;;24.67;20.57;;;2.20;84.60;;;;;;6063977;23;20926;-79
2022/04/05 03:18:27;;;;;;;24.85;20.98;;;2.20;84.60;;;;;;6040657;23;20446;-80
2022/04/05 03:20:54;;;;;;;20.92;18.67;;;2.10;85.30;;;;;;6040913;23;20383;-81
2022/04/05 03:23:21;;;;;;;22.40;19.77;;;2.10;84.70;;;;;;6039937;23;20748;-78
2022/04/05 03:25:49;;;;;;;27.15;22.35;;;2.10;85.10;;;;;;6066314;23;20911;-78
2022/04/05 03:28:18;;;;;;;25.20;21.20;;;2.00;85.10;;;;;;6063861;23;20863;-81
2022/04/05 03:30:47;;;;;;;23.42;20.20;;;2.00;85.40;;;;;;6063896;23;20508;-80
2022/04/05 03:33:15;;;;;;;25.03;21.20;;;2.00;85.50;;;;;;6040500;23;20914;-78
2022/04/05 03:35:42;;;;;;;24.70;20.98;;;2.00;85.50;;;;;;6040074;23;20442;-81
2022/04/05 03:38:09;;;;;;;23.25;19.90;;;1.90;85.10;;;;;;6041198;23;20395;-78
2022/04/05 03:40:36;;;;;;;26.20;21.98;;;2.00;84.40;;;;;;6064953;23;20387;-81
2022/04/05 03:43:04;;;;;;;24.37;20.87;;;2.00;84.30;;;;;;6040841;23;20372;-80
2022/04/05 03:45:30;;;;;;;23.75;20.58;;;2.00;84.00;;;;;;6039955;23;20387;-80
2022/04/05 03:47:57;;;;;;;26.27;20.80;;;2.00;83.50;;;;;;6016864;23;20848;-78
2022/04/05 03:50:25;;;;;;;22.50;19.77;;;2.00;83.40;;;;;;6064914;23;20391;-81
2022/04/05 03:52:51;;;;;;;22.50;19.77;;;2.00;82.90;;;;;;6040418;23;20906;-80
2022/04/05 03:55:18;;;;;;;25.33;20.63;;;2.00;83.40;;;;;;6039679;23;20388;-81
2022/04/05 03:57:45;;;;;;;24.55;20.35;;;1.90;83.70;;;;;;6064869;23;20367;-79
2022/04/05 04:00:13;;;;;;;26.25;21.60;;;1.90;83.30;;;;;;6040385;23;20391;-81
2022/04/05 04:02:39;;;;;;;22.63;19.40;;;1.90;83.90;;;;;;6039428;23;20387;-80
2022/04/05 04:05:07;;;;;;;25.42;21.20;;;1.90;83.60;;;;;;6064685;23;20390;-77
2022/04/05 04:07:39;;;;;;;24.77;19.90;;;1.90;83.20;;;;;;6039368;23;20394;-81
2022/04/05 04:10:08;;;;;;;25.92;22.30;;;1.90;83.90;;;;;;6065457;23;20868;-81
2022/04/05 04:12:35;;;;;;;26.40;21.80;;;1.90;83.90;;;;;;6038887;23;20407;-81
2022/04/05 04:15:02;;;;;;;22.73;19.27;;;1.90;84.60;;;;;;6040412;23;20934;-79
2022/04/05 04:17:30;;;;;;;21.92;19.63;;;1.90;85.80;;;;;;6039645;23;20394;-79
2022/04/05 04:19:57;;;;;;;22.17;18.88;;;1.80;84.90;;;;;;6065541;23;20410;-78
2022/04/05 04:22:23;;;;;;;22.88;20.00;;;1.80;84.40;;;;;;6064066;23;20414;-78
2022/04/05 04:24:51;;;;;;;23.75;19.90;;;1.80;84.50;;;;;;6064350;23;20382;-80
2022/04/05 04:27:18;;;;;;;23.20;20.52;;;1.70;85.50;;;;;;6040476;23;20390;-80
2022/04/05 04:29:45;;;;;;;23.55;20.17;;;1.60;86.70;;;;;;6038490;23;20390;-81
2022/04/05 04:32:12;;;;;;;25.40;21.00;;;1.60;86.20;;;;;;6039992;23;20712;-79
2022/04/05 04:34:39;;;;;;;22.38;18.52;;;1.60;87.40;;;;;;6039547;23;20386;-78
2022/04/05 04:37:06;;;;;;;21.75;19.25;;;1.50;86.80;;;;;;6063366;23;20772;-81
2022/04/05 04:39:33;;;;;;;23.63;20.40;;;1.50;86.70;;;;;;6062399;23;20395;-80
2022/04/05 04:42:00;;;;;;;22.77;19.93;;;1.40;87.60;;;;;;6039927;23;20378;-80
2022/04/05 04:44:27;;;;;;;23.50;20.83;;;1.40;88.30;;;;;;6038479;23;20391;-80
2022/04/05 04:46:54;;;;;;;27.48;22.48;;;1.40;87.10;;;;;;6039371;23;20386;-80
2022/04/05 04:49:22;;;;;;;27.75;23.15;;;1.30;89.10;;;;;;6040009;23;20848;-82
2022/04/05 04:51:49;;;;;;;26.15;23.10;;;1.30;90.00;;;;;;6040069;23;20670;-80
2022/04/05 04:54:16;;;;;;;28.48;23.40;;;1.40;88.80;;;;;;6040075;23;20384;-78
2022/04/05 04:56:42;;;;;;;26.55;21.90;;;1.40;88.30;;;;;;6051411;23;20438;-79
2022/04/05 04:59:09;;;;;;;25.52;22.05;;;1.40;87.40;;;;;;6044313;23;20871;-80
2022/04/05 05:01:36;;;;;;;25.42;22.15;;;1.50;87.20;;;;;;6042492;23;20414;-80
2022/04/05 05:04:03;;;;;;;23.53;19.33;;;1.40;88.30;;;;;;6065531;23;20443;-81
2022/04/05 05:06:30;;;;;;;22.17;19.77;;;1.30;88.40;;;;;;6039556;23;20397;-80
2022/04/05 05:08:57;;;;;;;22.33;18.70;;;1.30;87.90;;;;;;6065693;23;20379;-78
2022/04/05 05:11:25;;;;;;;23.38;19.58;;;1.30;88.00;;;;;;6065048;23;20872;-79
2022/04/05 05:13:52;;;;;;;23.73;21.03;;;1.30;88.10;;;;;;6067003;23;20424;-81
2022/04/05 05:16:19;;;;;;;29.23;23.08;;;1.20;88.90;;;;;;6040726;23;20395;-79
2022/04/05 05:18:46;;;;;;;26.42;21.85;;;1.20;90.40;;;;;;6039947;23;20411;-79
2022/04/05 05:21:12;;;;;;;24.90;20.88;;;1.20;89.80;;;;;;6068096;23;20383;-79
2022/04/05 05:23:39;;;;;;;25.67;22.08;;;1.30;89.40;;;;;;6040417;23;20450;-79
2022/04/05 05:26:06;;;;;;;23.90;20.27;;;1.30;89.20;;;;;;6067678;23;20377;-79
2022/04/05 05:28:33;;;;;;;26.13;21.70;;;1.40;88.70;;;;;;6041232;23;20386;-80
2022/04/05 05:31:00;;;;;;;27.17;22.88;;;1.40;89.70;;;;;;6062815;23;20393;-80
2022/04/05 05:33:27;;;;;;;29.65;24.25;;;1.40;90.10;;;;;;6072378;23;20436;-80
2022/04/05 05:35:54;;;;;;;27.38;22.60;;;1.40;90.50;;;;;;6065170;23;20446;-81
2022/04/05 05:38:21;;;;;;;27.23;22.75;;;1.50;90.10;;;;;;6041513;23;20383;-78
2022/04/05 05:40:48;;;;;;;26.93;21.90;;;1.60;89.70;;;;;;6067460;23;20379;-81
2022/04/05 05:43:15;;;;;;;26.70;22.52;;;1.60;89.10;;;;;;6041107;23;20861;-79
2022/04/05 05:45:42;;;;;;;27.65;23.40;;;1.70;88.70;;;;;;6017116;23;20379;-80
2022/04/05 05:48:09;;;;;;;27.02;22.70;;;1.70;89.10;;;;;;6070096;23;20387;-80
2022/04/05 05:50:36;;;;;;;26.77;22.67;;;1.70;88.80;;;;;;6066634;23;20413;-81
2022/04/05 05:53:04;;;;;;;27.10;22.83;;;1.70;89.10;;;;;;6042799;23;20469;-80
2022/04/05 05:55:32;;;;;;;26.23;23.02;;;1.70;89.20;;;;;;6048271;23;20390;-79
2022/04/05 05:58:02;;;;;;;26.37;21.93;;;1.70;89.60;;;;;;6045472;23;20419;-80
2022/04/05 06:00:29;;;;;;;25.20;22.48;;;1.80;89.60;;;;;;6067946;23;20397;-79
2022/04/05 06:03:02;;;;;;;22.83;20.08;;;1.80;89.70;;;;;;6042551;23;20458;-80
2022/04/05 06:05:30;;;;;;;23.77;20.27;;;1.80;89.50;;;;;;6042125;23;20386;-80
2022/04/05 06:07:57;;;;;;;24.27;19.70;;;1.90;89.10;;;;;;6039804;23;20426;-80
2022/04/05 06:10:25;;;;;;;23.38;19.70;;;2.00;88.70;;;;;;6041304;23;20383;-80
2022/04/05 06:12:55;;;;;;;21.13;18.25;;;2.00;90.00;;;;;;6041927;23;20379;-80
2022/04/05 06:15:23;;;;;;;21.33;18.85;;;2.10;89.30;;;;;;6042154;23;20414;-79
2022/04/05 06:17:51;;;;;;;21.67;18.40;;;2.10;89.40;;;;;;6040498;23;20381;-80
2022/04/05 06:20:20;;;;;;;21.17;18.73;;;2.10;89.50;;;;;;6043059;23;20399;-81
2022/04/05 06:22:52;;;;;;;21.95;18.92;;;2.20;89.30;;;;;;6040773;23;20438;-78
2022/04/05 06:25:26;;;;;;;27.10;21.98;;;2.20;88.80;;;;;;6041044;23;20398;-80
2022/04/05 06:27:58;;;;;;;25.38;20.95;;;2.30;88.40;;;;;;6039695;23;21299;-80
2022/04/05 06:30:25;;;;;;;25.53;21.83;;;2.40;87.90;;;;;;6042500;23;20383;-80
2022/04/05 06:33:10;;;;;;;27.35;22.90;;;2.50;87.70;;;;;;6039690;23;20395;-80
2022/04/05 06:39:17;;;;;;;30.58;24.70;;;2.60;88.60;;;;;;6067157;23;20434;-79
2022/04/05 06:41:44;;;;;;;31.60;27.77;;;2.70;88.90;;;;;;6041371;23;20383;-80
2022/04/05 06:44:11;;;;;;;32.87;28.23;;;2.80;90.00;;;;;;6066486;23;20410;-80
2022/04/05 06:46:38;;;;;;;30.90;26.50;;;2.90;90.10;;;;;;6066120;23;20879;-80
2022/04/05 06:49:05;;;;;;;33.65;28.35;;;3.00;90.00;;;;;;6040469;23;20708;-79
2022/04/05 06:51:32;;;;;;;40.25;31.08;;;3.20;90.30;;;;;;6065072;23;20391;-80
2022/04/05 06:53:59;;;;;;;36.75;29.70;;;3.30;90.50;;;;;;6064696;23;20383;-80
2022/04/05 06:56:26;;;;;;;36.53;31.35;;;3.50;90.10;;;;;;6040335;23;20438;-79
2022/04/05 06:58:53;;;;;;;37.72;31.15;;;3.70;90.50;;;;;;6064944;23;20392;-79
2022/04/05 07:01:20;;;;;;;38.15;30.38;;;4.00;90.30;;;;;;6063609;23;20756;-81
2022/04/05 07:03:47;;;;;;;33.10;29.13;;;4.10;90.10;;;;;;6039727;23;20922;-79
2022/04/05 07:06:14;;;;;;;30.90;27.55;;;4.30;89.60;;;;;;6040148;23;20438;-81
2022/04/05 07:08:41;;;;;;;29.70;26.27;;;4.50;89.30;;;;;;6041150;23;20371;-81
2022/04/05 07:11:08;;;;;;;29.10;25.87;;;4.70;89.30;;;;;;6064733;23;20965;-78
2022/04/05 07:13:35;;;;;;;28.63;25.15;;;5.00;86.80;;;;;;6065584;23;20880;-80
2022/04/05 07:16:03;;;;;;;25.38;21.98;;;5.20;85.00;;;;;;6063795;23;20411;-81
2022/04/05 07:18:30;;;;;;;26.50;22.95;;;5.50;83.30;;;;;;6041643;23;20440;-80
2022/04/05 07:20:57;;;;;;;23.45;20.63;;;5.90;82.50;;;;;;6039390;23;20450;-79
2022/04/05 07:23:24;;;;;;;22.90;20.02;;;6.20;79.30;;;;;;6039962;23;20379;-81
2022/04/05 07:25:51;;;;;;;21.67;19.40;;;6.40;78.10;;;;;;6039610;23;20387;-79
2022/04/05 07:28:18;;;;;;;23.63;18.95;;;6.60;78.70;;;;;;6040813;23;20860;-78
2022/04/05 07:30:45;;;;;;;20.55;16.25;;;6.90;77.90;;;;;;6040682;23;20386;-81
2022/04/05 07:33:12;;;;;;;15.38;13.77;;;7.10;76.00;;;;;;6038907;23;21291;-81
2022/04/05 07:35:39;;;;;;;16.67;13.23;;;7.20;71.60;;;;;;6041502;23;20689;-78
2022/04/05 07:38:06;;;;;;;14.55;11.73;;;7.40;68.10;;;;;;6039844;23;20391;-78
2022/04/05 07:40:52;;;;;;;13.00;10.80;;;7.50;65.10;;;;;;6041131;23;20399;-78
2022/04/05 07:43:23;;;;;;;12.95;10.02;;;7.50;64.00;;;;;;6039008;23;21295;-80
2022/04/05 07:45:51;;;;;;;12.38;9.95;;;7.70;62.50;;;;;;6040471;23;20391;-80
2022/04/05 07:48:26;;;;;;;12.35;9.23;;;7.70;60.00;;;;;;6063938;23;20382;-79
2022/04/05 07:50:53;;;;;;;11.00;9.33;;;7.90;61.00;;;;;;6064279;23;20467;-78
2022/04/05 07:53:20;;;;;;;11.38;9.80;;;8.00;61.40;;;;;;6064701;23;20437;-78
2022/04/05 07:55:47;;;;;;;10.52;9.40;;;8.20;61.50;;;;;;6063533;23;20859;-79
2022/04/05 07:58:14;;;;;;;10.30;9.10;;;8.30;60.00;;;;;;6062947;23;20391;-78
2022/04/05 08:00:41;;;;;;;10.38;9.02;;;8.50;60.40;;;;;;6065558;23;20863;-81
2022/04/05 08:03:08;;;;;;;11.23;9.88;;;8.80;58.80;;;;;;6063682;23;20429;-79
2022/04/05 08:05:36;;;;;;;10.25;9.02;;;9.10;60.10;;;;;;6063537;23;20410;-81
2022/04/05 08:08:03;;;;;;;10.80;9.70;;;9.40;58.00;;;;;;6063413;23;20387;-81
2022/04/05 08:10:30;;;;;;;13.23;11.82;;;9.60;55.80;;;;;;6065256;23;20385;-78
2022/04/05 08:12:59;;;;;;;14.98;12.25;;;9.90;56.80;;;;;;6039601;23;20410;-81
2022/04/05 08:15:27;;;;;;;14.23;12.30;;;10.00;57.00;;;;;;6040114;23;20791;-81
2022/04/05 08:17:53;;;;;;;15.35;12.77;;;10.20;57.30;;;;;;6040407;23;20391;-79
2022/04/05 08:20:20;;;;;;;12.18;10.88;;;10.20;57.10;;;;;;6042177;23;20761;-78
2022/04/05 08:22:48;;;;;;;15.18;13.60;;;10.40;55.00;;;;;;6041887;23;20390;-81
2022/04/05 08:25:18;;;;;;;14.98;13.43;;;10.50;56.60;;;;;;6040397;23;20438;-79
2022/04/05 08:27:47;;;;;;;16.88;15.18;;;10.40;56.30;;;;;;6040494;23;20383;-81
2022/04/05 08:30:17;;;;;;;17.55;15.75;;;10.50;59.30;;;;;;6039677;23;20378;-79
2022/04/05 08:32:46;;;;;;;16.58;14.75;;;10.80;57.70;;;;;;6066692;23;20931;-81
2022/04/05 08:35:18;;;;;;;16.20;14.50;;;10.90;56.90;;;;;;6038829;23;20467;-80
2022/04/05 08:37:48;;;;;;;17.00;14.73;;;11.20;55.40;;;;;;6039877;23;20863;-81
2022/04/05 08:40:16;;;;;;;19.63;17.60;;;11.40;56.00;;;;;;6064727;23;20391;-81
2022/04/05 08:42:47;;;;;;;21.23;17.52;;;11.60;57.00;;;;;;6040085;23;20859;-81
2022/04/05 08:45:16;;;;;;;27.17;24.10;;;11.80;52.90;;;;;;6040707;23;20386;-78
2022/04/05 08:47:49;;;;;;;19.25;17.42;;;11.70;54.30;;;;;;6041040;23;20383;-78
2022/04/05 08:50:20;;;;;;;19.58;17.52;;;11.80;54.00;;;;;;6039778;23;20438;-81
2022/04/05 08:52:50;;;;;;;18.98;17.08;;;12.00;55.80;;;;;;6039852;23;20391;-80
2022/04/05 08:55:18;;;;;;;18.48;16.58;;;11.80;53.10;;;;;;6040197;23;20411;-79
2022/04/05 08:57:45;;;;;;;18.85;16.85;;;11.80;54.40;;;;;;6040796;23;20379;-80
2022/04/05 09:00:15;;;;;;;19.23;17.20;;;12.00;53.90;;;;;;6039252;23;20402;-79
2022/04/05 09:03:00;;;;;;;18.13;16.30;;;12.00;53.70;;;;;;6039917;23;20446;-79
2022/04/05 09:05:43;;;;;;;18.03;16.23;;;12.30;51.90;;;;;;6063909;23;20501;-80
2022/04/05 09:08:23;;;;;;;18.30;16.40;;;12.50;51.20;;;;;;6039197;23;20383;-80
2022/04/05 09:11:09;;;;;;;17.67;15.88;;;12.50;51.30;;;;;;6039791;23;20383;-81
2022/04/05 09:13:36;;;;;;;18.52;16.63;;;12.80;51.90;;;;;;6040310;23;20380;-78
2022/04/05 09:16:05;;;;;;;18.70;16.90;;;12.90;50.90;;;;;;6039066;23;20402;-81
2022/04/05 09:18:37;;;;;;;19.05;17.05;;;12.90;49.80;;;;;;6038780;23;20715;-81
2022/04/05 09:21:07;;;;;;;19.33;17.33;;;13.20;49.90;;;;;;6039189;23;20412;-78
2022/04/05 09:23:38;;;;;;;18.15;16.25;;;13.30;48.20;;;;;;6040080;23;20434;-81
2022/04/05 09:26:08;;;;;;;17.45;15.65;;;13.10;49.40;;;;;;6066060;23;20387;-82
2022/04/05 09:28:41;;;;;;;18.63;16.75;;;13.30;50.00;;;;;;6039609;23;20379;-80
2022/04/05 09:31:10;;;;;;;18.98;17.13;;;13.50;49.90;;;;;;6039051;23;20387;-80
2022/04/05 09:33:40;;;;;;;18.25;16.38;;;13.60;49.40;;;;;;6065524;23;20450;-78
2022/04/05 09:36:13;;;;;;;18.27;16.55;;;13.60;49.80;;;;;;6040869;23;20439;-81
2022/04/05 09:38:44;;;;;;;17.83;16.13;;;13.80;50.10;;;;;;6039285;23;20381;-81
2022/04/05 09:41:22;;;;;;;18.30;16.50;;;13.90;48.50;;;;;;6039809;23;20391;-80
2022/04/05 09:43:59;;;;;;;17.15;15.48;;;14.00;48.50;;;;;;6039443;23;20450;-78
2022/04/05 09:46:28;;;;;;;18.30;16.40;;;14.00;49.40;;;;;;6063342;23;20860;-79
2022/04/05 09:49:10;;;;;;;18.50;16.65;;;14.00;47.60;;;;;;6040802;23;20509;-82
2022/04/05 09:51:41;;;;;;;19.27;17.27;;;14.10;48.00;;;;;;6038941;23;20390;-80
2022/04/05 09:54:17;;;;;;;19.67;17.60;;;13.80;47.50;;;;;;6040690;23;20379;-78
2022/04/05 09:56:44;;;;;;;20.15;18.05;;;13.70;47.90;;;;;;6039982;23;20386;-81
2022/04/05 09:59:18;;;;;;;20.20;18.27;;;13.80;47.70;;;;;;6040890;23;20443;-81
2022/04/05 10:01:47;;;;;;;19.73;17.73;;;14.00;48.00;;;;;;6040611;23;20438;-81
2022/04/05 10:04:16;;;;;;;18.23;16.42;;;14.10;47.10;;;;;;6041025;23;20379;-81
2022/04/05 10:06:47;;;;;;;19.50;17.50;;;14.30;48.00;;;;;;6040987;23;20701;-80
2022/04/05 10:09:16;;;;;;;19.27;17.35;;;14.20;47.60;;;;;;6041129;23;20398;-81
2022/04/05 10:11:44;;;;;;;18.17;16.38;;;14.30;48.00;;;;;;6065904;23;20383;-81
2022/04/05 10:14:14;;;;;;;19.25;17.33;;;14.20;47.80;;;;;;6040675;23;20442;-81
2022/04/05 10:16:45;;;;;;;19.73;17.73;;;14.30;47.80;;;;;;6040910;23;20927;-78
2022/04/05 10:19:12;;;;;;;19.90;17.57;;;14.70;49.10;;;;;;6042166;23;20409;-79
2022/04/05 10:21:41;;;;;;;20.23;18.03;;;14.80;46.60;;;;;;6064425;23;20391;-80
2022/04/05 10:24:11;;;;;;;20.80;18.70;;;15.00;49.50;;;;;;6042009;23;20463;-78
2022/04/05 10:26:45;;;;;;;22.52;20.33;;;14.90;46.10;;;;;;6041094;23;20460;-78
2022/04/05 10:29:19;;;;;;;19.70;17.70;;;14.40;48.10;;;;;;6041958;23;20387;-81
2022/04/05 10:32:01;;;;;;;20.35;18.27;;;14.60;47.50;;;;;;6065267;23;20385;-82
2022/04/05 10:34:44;;;;;;;18.42;16.55;;;14.90;48.50;;;;;;6064072;23;20385;-80
2022/04/05 10:37:16;;;;;;;20.30;18.13;;;15.20;47.50;;;;;;6067502;23;20383;-82
2022/04/05 10:40:05;;;;;;;19.20;17.20;;;15.00;45.30;;;;;;6040702;23;20410;-82
2022/04/05 10:42:37;;;;;;;20.65;18.35;;;14.90;47.80;;;;;;6031625;23;20391;-81
2022/04/05 10:45:18;;;;;;;19.45;17.45;;;15.10;46.40;;;;;;6063902;23;20777;-80
2022/04/05 10:48:13;;;;;;;20.33;18.13;;;15.30;45.70;;;;;;6041874;23;20383;-81
2022/04/05 10:51:00;;;;;;;18.25;16.35;;;15.00;47.00;;;;;;6065377;23;20378;-81
2022/04/05 10:53:35;;;;;;;19.00;17.00;;;15.20;46.30;;;;;;6041527;23;20451;-79
2022/04/05 10:56:07;;;;;;;19.02;17.02;;;15.50;46.70;;;;;;6065107;23;20435;-80
2022/04/05 10:58:36;;;;;;;20.60;18.55;;;15.70;47.20;;;;;;6041220;23;20383;-80
2022/04/05 11:01:21;;;;;;;19.52;17.63;;;15.40;45.30;;;;;;6064450;23;20950;-82
2022/04/05 11:04:18;;;;;;;20.50;18.38;;;15.40;45.80;;;;;;6063737;23;20410;-78
2022/04/05 11:07:05;;;;;;;19.60;17.50;;;15.30;46.30;;;;;;6040767;23;20383;-78
2022/04/05 11:09:33;;;;;;;21.38;19.10;;;15.80;47.00;;;;;;6041652;23;20423;-82
2022/04/05 11:12:04;;;;;;;21.00;18.98;;;15.90;46.20;;;;;;6064034;23;20450;-81
2022/04/05 11:14:47;;;;;;;20.83;18.73;;;16.20;46.30;;;;;;6066401;23;20390;-80
2022/04/05 11:17:16;;;;;;;20.57;18.47;;;16.20;45.80;;;;;;6064205;23;20410;-82
2022/04/05 11:19:46;;;;;;;19.70;17.63;;;16.30;46.50;;;;;;6065426;23;20716;-81
2022/04/05 11:22:21;;;;;;;20.13;18.15;;;16.40;46.50;;;;;;6064441;23;20364;-81
2022/04/05 11:24:52;;;;;;;18.55;16.70;;;16.50;43.50;;;;;;6041432;23;20407;-80
2022/04/05 11:27:45;;;;;;;18.30;16.50;;;16.60;45.90;;;;;;6064911;23;21198;-82
2022/04/05 11:30:44;;;;;;;18.48;16.67;;;17.00;46.40;;;;;;6047050;23;20395;-80
2022/04/05 11:33:26;;;;;;;19.08;17.27;;;16.70;43.50;;;;;;6064359;23;20418;-80
2022/04/05 11:36:00;;;;;;;18.05;16.25;;;16.30;44.20;;;;;;6043246;23;20387;-83
2022/04/05 11:38:39;;;;;;;18.90;17.02;;;16.30;45.80;;;;;;6040914;23;20815;-83
2022/04/05 11:41:20;;;;;;;18.40;16.60;;;16.50;45.10;;;;;;6065912;23;20439;-83
2022/04/05 11:43:51;;;;;;;17.95;16.02;;;16.70;45.30;;;;;;6066547;23;21245;-84
2022/04/05 11:46:28;;;;;;;16.80;15.15;;;17.20;43.20;;;;;;6067649;23;20386;-83
2022/04/05 11:49:02;;;;;;;16.52;14.93;;;17.70;43.20;;;;;;6062814;23;20459;-80
2022/04/05 11:51:35;;;;;;;17.75;15.85;;;18.20;41.90;;;;;;6063172;23;20943;-83
2022/04/05 11:54:27;;;;;;;16.93;15.23;;;18.20;41.30;;;;;;6062958;23;20936;-82
2022/04/05 11:57:03;;;;;;;17.10;15.30;;;18.20;41.50;;;;;;6063041;23;20458;-82
2022/04/05 11:59:31;;;;;;;16.90;15.30;;;18.30;39.70;;;;;;6065476;23;20390;-83
2022/04/05 12:01:58;;;;;;;16.42;14.93;;;18.40;40.30;;;;;;6062462;23;20406;-80
2022/04/05 12:04:26;;;;;;;17.33;15.52;;;18.20;41.40;;;;;;6064039;23;20439;-80
2022/04/05 12:06:56;;;;;;;17.30;15.60;;;17.80;41.30;;;;;;6062291;23;20387;-79
2022/04/05 12:09:26;;;;;;;18.83;16.05;;;17.70;39.20;;;;;;6063105;23;20409;-83
2022/04/05 12:11:53;;;;;;;17.02;15.35;;;17.70;40.80;;;;;;6064690;23;20764;-83
2022/04/05 12:14:28;;;;;;;17.30;15.60;;;17.90;41.50;;;;;;6062997;23;20391;-79
2022/04/05 12:16:58;;;;;;;19.25;17.10;;;17.70;41.80;;;;;;6062560;23;20397;-79
2022/04/05 12:19:30;;;;;;;17.67;15.88;;;17.60;39.90;;;;;;6064093;23;20394;-79
2022/04/05 12:22:01;;;;;;;17.83;16.00;;;17.00;41.80;;;;;;6063921;23;20395;-83
2022/04/05 12:24:29;;;;;;;18.23;16.33;;;17.10;41.80;;;;;;6062379;23;20379;-82
2022/04/05 12:27:02;;;;;;;17.60;15.80;;;17.20;41.70;;;;;;6061749;23;20452;-82
2022/04/05 12:29:30;;;;;;;17.55;15.75;;;17.00;42.20;;;;;;6066897;23;20391;-80
2022/04/05 12:32:08;;;;;;;17.40;15.63;;;17.40;43.00;;;;;;6063001;23;20935;-83
2022/04/05 12:34:35;;;;;;;18.05;16.15;;;17.80;40.60;;;;;;6065361;23;20391;-78
2022/04/05 12:37:05;;;;;;;18.57;16.57;;;17.50;41.50;;;;;;6062534;23;20757;-82
2022/04/05 12:39:42;;;;;;;17.85;15.95;;;17.50;40.50;;;;;;6062937;23;20398;-79
2022/04/05 12:42:10;;;;;;;16.30;14.60;;;17.50;41.10;;;;;;6063578;23;20383;-79
2022/04/05 12:44:46;;;;;;;17.40;14.77;;;18.00;40.20;;;;;;6039804;23;20716;-82
2022/04/05 12:47:21;;;;;;;22.15;19.48;;;18.20;40.70;;;;;;6062100;23;20462;-82
2022/04/05 12:49:50;;;;;;;17.17;15.27;;;18.10;40.80;;;;;;6063711;23;20383;-82